sensor_id;sensor_type;location;lat;lon;timestamp;P1;durP1;ratioP1;P2;durP2;ratioP2
7104;SDS011;3594;42.152;24.714;2023-07-13T00:02:06;14.50;;;7.70;;
7104;SDS011;3594;42.152;24.714;2023-07-13T00:04:32;11.52;;;7.55;;
7104;SDS011;3594;42.152;24.714;2023-07-13T00:06:58;18.45;;;7.90;;
7104;SDS011;3594;42.152;24.714;2023-07-13T00:09:23;14.05;;;7.78;;
7104;SDS011;3594;42.152;24.714;2023-07-13T00:11:54;12.13;;;7.55;;
7104;SDS011;3594;42.152;24.714;2023-07-13T00:14:21;14.85;;;8.07;;
7104;SDS011;3594;42.152;24.714;2023-07-13T00:16:47;11.23;;;7.75;;
7104;SDS011;3594;42.152;24.714;2023-07-13T00:19:13;14.10;;;7.55;;
7104;SDS011;3594;42.152;24.714;2023-07-13T00:21:39;12.73;;;8.18;;
7104;SDS011;3594;42.152;24.714;2023-07-13T00:24:06;14.48;;;8.10;;
7104;SDS011;3594;42.152;24.714;2023-07-13T00:26:33;12.65;;;7.10;;
7104;SDS011;3594;42.152;24.714;2023-07-13T00:28:59;13.90;;;7.85;;
7104;SDS011;3594;42.152;24.714;2023-07-13T00:31:25;12.95;;;7.32;;
7104;SDS011;3594;42.152;24.714;2023-07-13T00:33:50;14.60;;;8.40;;
7104;SDS011;3594;42.152;24.714;2023-07-13T00:36:16;15.60;;;8.70;;
7104;SDS011;3594;42.152;24.714;2023-07-13T00:38:42;13.50;;;7.93;;
7104;SDS011;3594;42.152;24.714;2023-07-13T00:41:08;13.48;;;8.00;;
7104;SDS011;3594;42.152;24.714;2023-07-13T00:43:33;12.55;;;7.80;;
7104;SDS011;3594;42.152;24.714;2023-07-13T00:48:28;14.82;;;8.68;;
7104;SDS011;3594;42.152;24.714;2023-07-13T00:50:59;14.98;;;8.13;;
7104;SDS011;3594;42.152;24.714;2023-07-13T00:53:27;12.55;;;7.65;;
7104;SDS011;3594;42.152;24.714;2023-07-13T00:55:55;13.95;;;7.78;;
7104;SDS011;3594;42.152;24.714;2023-07-13T00:58:21;11.27;;;7.30;;
7104;SDS011;3594;42.152;24.714;2023-07-13T01:00:48;13.50;;;7.55;;
7104;SDS011;3594;42.152;24.714;2023-07-13T01:03:14;10.80;;;7.05;;
7104;SDS011;3594;42.152;24.714;2023-07-13T01:05:40;11.00;;;7.55;;
7104;SDS011;3594;42.152;24.714;2023-07-13T01:08:06;16.13;;;7.80;;
7104;SDS011;3594;42.152;24.714;2023-07-13T01:10:38;11.82;;;7.63;;
7104;SDS011;3594;42.152;24.714;2023-07-13T01:13:06;13.45;;;7.32;;
7104;SDS011;3594;42.152;24.714;2023-07-13T01:15:34;14.52;;;8.15;;
7104;SDS011;3594;42.152;24.714;2023-07-13T01:18:09;10.90;;;7.40;;
7104;SDS011;3594;42.152;24.714;2023-07-13T01:20:40;10.98;;;7.07;;
7104;SDS011;3594;42.152;24.714;2023-07-13T01:23:08;10.88;;;7.22;;
7104;SDS011;3594;42.152;24.714;2023-07-13T01:25:35;11.02;;;6.47;;
7104;SDS011;3594;42.152;24.714;2023-07-13T01:28:02;11.50;;;7.20;;
7104;SDS011;3594;42.152;24.714;2023-07-13T01:30:29;13.10;;;7.53;;
7104;SDS011;3594;42.152;24.714;2023-07-13T01:32:56;12.05;;;7.10;;
7104;SDS011;3594;42.152;24.714;2023-07-13T01:35:21;11.65;;;7.20;;
7104;SDS011;3594;42.152;24.714;2023-07-13T01:37:46;10.00;;;5.90;;
7104;SDS011;3594;42.152;24.714;2023-07-13T01:40:12;9.57;;;6.78;;
7104;SDS011;3594;42.152;24.714;2023-07-13T01:42:38;11.27;;;7.40;;
7104;SDS011;3594;42.152;24.714;2023-07-13T01:45:03;11.98;;;7.47;;
7104;SDS011;3594;42.152;24.714;2023-07-13T01:47:29;11.00;;;7.07;;
7104;SDS011;3594;42.152;24.714;2023-07-13T01:49:56;12.30;;;7.10;;
7104;SDS011;3594;42.152;24.714;2023-07-13T01:52:22;12.32;;;7.10;;
7104;SDS011;3594;42.152;24.714;2023-07-13T01:54:47;12.05;;;6.90;;
7104;SDS011;3594;42.152;24.714;2023-07-13T01:57:13;12.23;;;6.95;;
7104;SDS011;3594;42.152;24.714;2023-07-13T01:59:38;10.32;;;6.85;;
7104;SDS011;3594;42.152;24.714;2023-07-13T02:02:03;11.07;;;6.82;;
7104;SDS011;3594;42.152;24.714;2023-07-13T02:04:29;9.65;;;6.55;;
7104;SDS011;3594;42.152;24.714;2023-07-13T02:06:54;8.85;;;5.80;;
7104;SDS011;3594;42.152;24.714;2023-07-13T02:09:20;10.73;;;6.88;;
7104;SDS011;3594;42.152;24.714;2023-07-13T02:11:46;11.90;;;7.00;;
7104;SDS011;3594;42.152;24.714;2023-07-13T02:14:11;9.52;;;6.38;;
7104;SDS011;3594;42.152;24.714;2023-07-13T02:16:37;10.75;;;6.90;;
7104;SDS011;3594;42.152;24.714;2023-07-13T02:19:02;10.40;;;6.72;;
7104;SDS011;3594;42.152;24.714;2023-07-13T02:21:28;10.25;;;7.20;;
7104;SDS011;3594;42.152;24.714;2023-07-13T02:23:54;10.05;;;6.80;;
7104;SDS011;3594;42.152;24.714;2023-07-13T02:26:20;11.88;;;6.95;;
7104;SDS011;3594;42.152;24.714;2023-07-13T02:28:45;10.05;;;6.85;;
7104;SDS011;3594;42.152;24.714;2023-07-13T02:31:12;10.13;;;6.80;;
7104;SDS011;3594;42.152;24.714;2023-07-13T02:33:39;11.77;;;7.57;;
7104;SDS011;3594;42.152;24.714;2023-07-13T02:36:04;11.20;;;7.20;;
7104;SDS011;3594;42.152;24.714;2023-07-13T02:38:30;9.32;;;6.30;;
7104;SDS011;3594;42.152;24.714;2023-07-13T02:40:59;10.40;;;6.97;;
7104;SDS011;3594;42.152;24.714;2023-07-13T02:43:24;10.13;;;6.65;;
7104;SDS011;3594;42.152;24.714;2023-07-13T02:45:50;9.32;;;6.72;;
7104;SDS011;3594;42.152;24.714;2023-07-13T02:48:16;8.95;;;6.18;;
7104;SDS011;3594;42.152;24.714;2023-07-13T02:50:41;11.35;;;6.82;;
7104;SDS011;3594;42.152;24.714;2023-07-13T02:53:07;11.45;;;6.80;;
7104;SDS011;3594;42.152;24.714;2023-07-13T02:55:32;10.77;;;6.70;;
7104;SDS011;3594;42.152;24.714;2023-07-13T02:57:57;10.18;;;7.13;;
7104;SDS011;3594;42.152;24.714;2023-07-13T03:00:23;10.32;;;6.47;;
7104;SDS011;3594;42.152;24.714;2023-07-13T03:02:49;9.75;;;6.45;;
7104;SDS011;3594;42.152;24.714;2023-07-13T03:05:14;10.05;;;6.78;;
7104;SDS011;3594;42.152;24.714;2023-07-13T03:07:40;9.75;;;6.57;;
7104;SDS011;3594;42.152;24.714;2023-07-13T03:10:05;11.65;;;7.38;;
7104;SDS011;3594;42.152;24.714;2023-07-13T03:12:31;11.85;;;6.97;;
7104;SDS011;3594;42.152;24.714;2023-07-13T03:14:57;8.52;;;6.47;;
7104;SDS011;3594;42.152;24.714;2023-07-13T03:17:23;9.32;;;6.35;;
7104;SDS011;3594;42.152;24.714;2023-07-13T03:19:48;12.43;;;6.82;;
7104;SDS011;3594;42.152;24.714;2023-07-13T03:22:17;12.05;;;7.20;;
7104;SDS011;3594;42.152;24.714;2023-07-13T03:24:43;10.27;;;6.50;;
7104;SDS011;3594;42.152;24.714;2023-07-13T03:27:09;10.80;;;6.15;;
7104;SDS011;3594;42.152;24.714;2023-07-13T03:29:35;10.15;;;6.85;;
7104;SDS011;3594;42.152;24.714;2023-07-13T03:32:00;9.75;;;6.03;;
7104;SDS011;3594;42.152;24.714;2023-07-13T03:34:25;12.05;;;6.82;;
7104;SDS011;3594;42.152;24.714;2023-07-13T03:36:53;9.73;;;6.47;;
7104;SDS011;3594;42.152;24.714;2023-07-13T03:39:20;9.18;;;5.95;;
7104;SDS011;3594;42.152;24.714;2023-07-13T03:41:45;10.38;;;6.47;;
7104;SDS011;3594;42.152;24.714;2023-07-13T03:44:11;9.85;;;6.20;;
7104;SDS011;3594;42.152;24.714;2023-07-13T03:46:36;9.95;;;6.07;;
7104;SDS011;3594;42.152;24.714;2023-07-13T03:49:03;9.50;;;6.10;;
7104;SDS011;3594;42.152;24.714;2023-07-13T03:51:30;7.85;;;5.82;;
7104;SDS011;3594;42.152;24.714;2023-07-13T03:53:55;9.98;;;6.32;;
7104;SDS011;3594;42.152;24.714;2023-07-13T03:56:21;10.23;;;6.78;;
7104;SDS011;3594;42.152;24.714;2023-07-13T03:58:48;10.00;;;6.45;;
7104;SDS011;3594;42.152;24.714;2023-07-13T04:01:14;10.85;;;6.32;;
7104;SDS011;3594;42.152;24.714;2023-07-13T04:03:42;8.75;;;6.07;;
7104;SDS011;3594;42.152;24.714;2023-07-13T04:06:08;10.95;;;6.13;;
7104;SDS011;3594;42.152;24.714;2023-07-13T04:08:40;8.30;;;5.90;;
7104;SDS011;3594;42.152;24.714;2023-07-13T04:11:06;8.23;;;5.70;;
7104;SDS011;3594;42.152;24.714;2023-07-13T04:13:32;9.85;;;6.43;;
7104;SDS011;3594;42.152;24.714;2023-07-13T04:15:57;9.63;;;6.22;;
7104;SDS011;3594;42.152;24.714;2023-07-13T04:18:23;9.00;;;6.05;;
7104;SDS011;3594;42.152;24.714;2023-07-13T04:20:49;9.43;;;5.90;;
7104;SDS011;3594;42.152;24.714;2023-07-13T04:23:15;7.78;;;5.50;;
7104;SDS011;3594;42.152;24.714;2023-07-13T04:25:44;8.93;;;5.90;;
7104;SDS011;3594;42.152;24.714;2023-07-13T04:28:11;9.60;;;5.80;;
7104;SDS011;3594;42.152;24.714;2023-07-13T04:30:37;10.20;;;6.10;;
7104;SDS011;3594;42.152;24.714;2023-07-13T04:33:02;13.07;;;6.70;;
7104;SDS011;3594;42.152;24.714;2023-07-13T04:35:27;11.82;;;6.57;;
7104;SDS011;3594;42.152;24.714;2023-07-13T04:37:53;12.23;;;7.13;;
7104;SDS011;3594;42.152;24.714;2023-07-13T04:40:19;9.88;;;6.70;;
7104;SDS011;3594;42.152;24.714;2023-07-13T04:42:45;13.38;;;7.20;;
7104;SDS011;3594;42.152;24.714;2023-07-13T04:45:11;14.95;;;7.10;;
7104;SDS011;3594;42.152;24.714;2023-07-13T04:47:38;12.52;;;7.30;;
7104;SDS011;3594;42.152;24.714;2023-07-13T04:50:05;14.65;;;7.93;;
7104;SDS011;3594;42.152;24.714;2023-07-13T04:52:31;12.88;;;7.72;;
7104;SDS011;3594;42.152;24.714;2023-07-13T04:54:58;10.48;;;7.15;;
7104;SDS011;3594;42.152;24.714;2023-07-13T04:57:24;14.00;;;7.68;;
7104;SDS011;3594;42.152;24.714;2023-07-13T04:59:49;14.15;;;7.82;;
7104;SDS011;3594;42.152;24.714;2023-07-13T05:02:14;12.50;;;7.15;;
7104;SDS011;3594;42.152;24.714;2023-07-13T05:04:40;14.68;;;7.75;;
7104;SDS011;3594;42.152;24.714;2023-07-13T05:07:05;13.43;;;7.57;;
7104;SDS011;3594;42.152;24.714;2023-07-13T05:09:31;12.93;;;7.80;;
7104;SDS011;3594;42.152;24.714;2023-07-13T05:11:56;12.35;;;8.05;;
7104;SDS011;3594;42.152;24.714;2023-07-13T05:14:22;12.60;;;7.82;;
7104;SDS011;3594;42.152;24.714;2023-07-13T05:16:47;14.18;;;7.38;;
7104;SDS011;3594;42.152;24.714;2023-07-13T05:19:12;11.45;;;7.68;;
7104;SDS011;3594;42.152;24.714;2023-07-13T05:21:38;12.38;;;7.53;;
7104;SDS011;3594;42.152;24.714;2023-07-13T05:24:03;11.60;;;7.35;;
7104;SDS011;3594;42.152;24.714;2023-07-13T05:26:29;10.13;;;7.22;;
7104;SDS011;3594;42.152;24.714;2023-07-13T05:28:55;21.33;;;9.48;;
7104;SDS011;3594;42.152;24.714;2023-07-13T05:31:20;14.05;;;8.00;;
7104;SDS011;3594;42.152;24.714;2023-07-13T05:33:45;12.60;;;7.10;;
7104;SDS011;3594;42.152;24.714;2023-07-13T05:36:11;11.75;;;7.10;;
7104;SDS011;3594;42.152;24.714;2023-07-13T05:38:36;11.40;;;6.90;;
7104;SDS011;3594;42.152;24.714;2023-07-13T05:41:02;13.70;;;7.40;;
7104;SDS011;3594;42.152;24.714;2023-07-13T05:43:27;13.35;;;7.43;;
7104;SDS011;3594;42.152;24.714;2023-07-13T05:45:53;10.43;;;6.90;;
7104;SDS011;3594;42.152;24.714;2023-07-13T05:48:19;11.20;;;7.50;;
7104;SDS011;3594;42.152;24.714;2023-07-13T05:50:45;14.18;;;7.47;;
7104;SDS011;3594;42.152;24.714;2023-07-13T05:53:11;12.55;;;7.35;;
7104;SDS011;3594;42.152;24.714;2023-07-13T05:55:47;11.57;;;7.00;;
7104;SDS011;3594;42.152;24.714;2023-07-13T05:58:15;10.38;;;7.18;;
7104;SDS011;3594;42.152;24.714;2023-07-13T06:00:42;10.73;;;7.15;;
7104;SDS011;3594;42.152;24.714;2023-07-13T06:03:07;10.60;;;7.18;;
7104;SDS011;3594;42.152;24.714;2023-07-13T06:05:33;13.68;;;7.85;;
7104;SDS011;3594;42.152;24.714;2023-07-13T06:08:01;12.55;;;7.20;;
7104;SDS011;3594;42.152;24.714;2023-07-13T06:10:26;10.80;;;7.13;;
7104;SDS011;3594;42.152;24.714;2023-07-13T06:12:51;10.98;;;7.15;;
7104;SDS011;3594;42.152;24.714;2023-07-13T06:15:17;12.35;;;6.80;;
7104;SDS011;3594;42.152;24.714;2023-07-13T06:17:42;11.77;;;7.07;;
7104;SDS011;3594;42.152;24.714;2023-07-13T06:20:08;10.65;;;6.55;;
7104;SDS011;3594;42.152;24.714;2023-07-13T06:22:34;12.45;;;7.32;;
7104;SDS011;3594;42.152;24.714;2023-07-13T06:25:00;14.52;;;7.05;;
7104;SDS011;3594;42.152;24.714;2023-07-13T06:27:25;11.02;;;7.47;;
7104;SDS011;3594;42.152;24.714;2023-07-13T06:29:50;10.18;;;6.55;;
7104;SDS011;3594;42.152;24.714;2023-07-13T06:32:16;11.32;;;7.18;;
7104;SDS011;3594;42.152;24.714;2023-07-13T06:34:41;12.82;;;7.05;;
7104;SDS011;3594;42.152;24.714;2023-07-13T06:37:07;11.43;;;7.15;;
7104;SDS011;3594;42.152;24.714;2023-07-13T06:39:32;15.23;;;7.28;;
7104;SDS011;3594;42.152;24.714;2023-07-13T06:41:57;10.00;;;6.90;;
7104;SDS011;3594;42.152;24.714;2023-07-13T06:44:23;10.90;;;7.13;;
7104;SDS011;3594;42.152;24.714;2023-07-13T06:46:48;12.57;;;6.88;;
7104;SDS011;3594;42.152;24.714;2023-07-13T06:49:14;13.02;;;7.35;;
7104;SDS011;3594;42.152;24.714;2023-07-13T06:51:39;11.75;;;6.78;;
7104;SDS011;3594;42.152;24.714;2023-07-13T06:54:04;10.45;;;7.03;;
7104;SDS011;3594;42.152;24.714;2023-07-13T06:56:30;10.18;;;6.88;;
7104;SDS011;3594;42.152;24.714;2023-07-13T06:58:55;11.18;;;7.30;;
7104;SDS011;3594;42.152;24.714;2023-07-13T07:01:20;12.25;;;7.18;;
7104;SDS011;3594;42.152;24.714;2023-07-13T07:03:46;10.88;;;7.60;;
7104;SDS011;3594;42.152;24.714;2023-07-13T07:08:45;11.57;;;7.20;;
7104;SDS011;3594;42.152;24.714;2023-07-13T07:11:12;9.60;;;6.65;;
7104;SDS011;3594;42.152;24.714;2023-07-13T07:13:39;12.00;;;6.95;;
7104;SDS011;3594;42.152;24.714;2023-07-13T07:16:05;11.60;;;7.25;;
7104;SDS011;3594;42.152;24.714;2023-07-13T07:18:31;11.63;;;7.43;;
7104;SDS011;3594;42.152;24.714;2023-07-13T07:20:57;12.27;;;7.32;;
7104;SDS011;3594;42.152;24.714;2023-07-13T07:23:22;10.77;;;7.00;;
7104;SDS011;3594;42.152;24.714;2023-07-13T07:25:48;10.50;;;7.35;;
7104;SDS011;3594;42.152;24.714;2023-07-13T07:28:14;9.88;;;7.13;;
7104;SDS011;3594;42.152;24.714;2023-07-13T07:30:43;10.77;;;6.93;;
7104;SDS011;3594;42.152;24.714;2023-07-13T07:33:09;12.00;;;7.05;;
7104;SDS011;3594;42.152;24.714;2023-07-13T07:35:34;12.82;;;6.63;;
7104;SDS011;3594;42.152;24.714;2023-07-13T07:38:00;10.75;;;6.93;;
7104;SDS011;3594;42.152;24.714;2023-07-13T07:40:25;11.15;;;6.38;;
7104;SDS011;3594;42.152;24.714;2023-07-13T07:42:51;8.88;;;6.00;;
7104;SDS011;3594;42.152;24.714;2023-07-13T07:45:17;12.10;;;6.70;;
7104;SDS011;3594;42.152;24.714;2023-07-13T07:47:43;10.90;;;6.85;;
7104;SDS011;3594;42.152;24.714;2023-07-13T07:50:09;9.70;;;6.72;;
7104;SDS011;3594;42.152;24.714;2023-07-13T07:52:34;11.32;;;7.00;;
7104;SDS011;3594;42.152;24.714;2023-07-13T07:55:00;10.35;;;6.35;;
7104;SDS011;3594;42.152;24.714;2023-07-13T07:57:25;10.05;;;7.05;;
7104;SDS011;3594;42.152;24.714;2023-07-13T07:59:51;12.77;;;7.13;;
7104;SDS011;3594;42.152;24.714;2023-07-13T08:02:16;9.98;;;6.72;;
7104;SDS011;3594;42.152;24.714;2023-07-13T08:04:42;10.48;;;6.60;;
7104;SDS011;3594;42.152;24.714;2023-07-13T08:07:07;10.50;;;7.22;;
7104;SDS011;3594;42.152;24.714;2023-07-13T08:09:33;11.98;;;6.85;;
7104;SDS011;3594;42.152;24.714;2023-07-13T08:11:59;11.18;;;6.57;;
7104;SDS011;3594;42.152;24.714;2023-07-13T08:14:25;10.10;;;6.80;;
7104;SDS011;3594;42.152;24.714;2023-07-13T08:16:50;9.55;;;6.80;;
7104;SDS011;3594;42.152;24.714;2023-07-13T08:19:15;11.43;;;6.47;;
7104;SDS011;3594;42.152;24.714;2023-07-13T08:21:41;10.13;;;7.03;;
7104;SDS011;3594;42.152;24.714;2023-07-13T08:24:08;12.32;;;6.78;;
7104;SDS011;3594;42.152;24.714;2023-07-13T08:26:34;9.65;;;6.32;;
7104;SDS011;3594;42.152;24.714;2023-07-13T08:29:00;9.60;;;6.88;;
7104;SDS011;3594;42.152;24.714;2023-07-13T08:31:25;9.13;;;6.55;;
7104;SDS011;3594;42.152;24.714;2023-07-13T08:33:51;10.80;;;6.32;;
7104;SDS011;3594;42.152;24.714;2023-07-13T08:36:16;10.27;;;6.20;;
7104;SDS011;3594;42.152;24.714;2023-07-13T08:38:42;8.88;;;5.88;;
7104;SDS011;3594;42.152;24.714;2023-07-13T08:41:14;7.63;;;5.93;;
7104;SDS011;3594;42.152;24.714;2023-07-13T08:43:42;7.72;;;5.70;;
7104;SDS011;3594;42.152;24.714;2023-07-13T08:46:27;9.50;;;6.00;;
7104;SDS011;3594;42.152;24.714;2023-07-13T08:48:57;9.00;;;6.28;;
7104;SDS011;3594;42.152;24.714;2023-07-13T08:54:09;9.73;;;6.22;;
7104;SDS011;3594;42.152;24.714;2023-07-13T08:56:43;8.88;;;5.93;;
7104;SDS011;3594;42.152;24.714;2023-07-13T08:59:12;13.73;;;5.90;;
7104;SDS011;3594;42.152;24.714;2023-07-13T09:04:45;8.63;;;5.97;;
7104;SDS011;3594;42.152;24.714;2023-07-13T09:13:04;8.05;;;5.38;;
7104;SDS011;3594;42.152;24.714;2023-07-13T09:15:46;7.57;;;5.47;;
7104;SDS011;3594;42.152;24.714;2023-07-13T09:18:16;9.13;;;5.25;;
7104;SDS011;3594;42.152;24.714;2023-07-13T09:20:55;7.50;;;5.50;;
7104;SDS011;3594;42.152;24.714;2023-07-13T09:23:26;8.30;;;5.60;;
7104;SDS011;3594;42.152;24.714;2023-07-13T09:25:55;6.53;;;4.80;;
7104;SDS011;3594;42.152;24.714;2023-07-13T09:28:28;6.82;;;4.93;;
7104;SDS011;3594;42.152;24.714;2023-07-13T09:31:15;7.40;;;5.45;;
7104;SDS011;3594;42.152;24.714;2023-07-13T09:33:44;8.35;;;4.90;;
7104;SDS011;3594;42.152;24.714;2023-07-13T09:36:29;8.20;;;4.95;;
7104;SDS011;3594;42.152;24.714;2023-07-13T09:38:59;6.65;;;4.95;;
7104;SDS011;3594;42.152;24.714;2023-07-13T09:46:55;7.10;;;4.68;;
7104;SDS011;3594;42.152;24.714;2023-07-13T09:49:35;8.60;;;5.40;;
7104;SDS011;3594;42.152;24.714;2023-07-13T09:52:05;9.65;;;6.10;;
7104;SDS011;3594;42.152;24.714;2023-07-13T09:54:36;8.25;;;6.05;;
7104;SDS011;3594;42.152;24.714;2023-07-13T09:57:03;12.23;;;8.07;;
7104;SDS011;3594;42.152;24.714;2023-07-13T09:59:40;12.80;;;8.95;;
7104;SDS011;3594;42.152;24.714;2023-07-13T10:05:04;16.23;;;9.93;;
7104;SDS011;3594;42.152;24.714;2023-07-13T10:07:32;12.27;;;6.50;;
7104;SDS011;3594;42.152;24.714;2023-07-13T10:10:13;8.77;;;5.90;;
7104;SDS011;3594;42.152;24.714;2023-07-13T10:12:39;11.48;;;6.97;;
7104;SDS011;3594;42.152;24.714;2023-07-13T10:15:07;8.18;;;5.88;;
7104;SDS011;3594;42.152;24.714;2023-07-13T10:17:40;7.88;;;5.18;;
7104;SDS011;3594;42.152;24.714;2023-07-13T10:20:09;9.32;;;5.03;;
7104;SDS011;3594;42.152;24.714;2023-07-13T10:25:07;9.57;;;4.65;;
7104;SDS011;3594;42.152;24.714;2023-07-13T10:27:39;7.40;;;4.78;;
7104;SDS011;3594;42.152;24.714;2023-07-13T10:32:38;8.52;;;5.68;;
7104;SDS011;3594;42.152;24.714;2023-07-13T10:35:05;8.30;;;5.00;;
7104;SDS011;3594;42.152;24.714;2023-07-13T10:37:54;7.40;;;5.55;;
7104;SDS011;3594;42.152;24.714;2023-07-13T10:40:31;6.53;;;4.50;;
7104;SDS011;3594;42.152;24.714;2023-07-13T10:43:02;10.20;;;4.80;;
7104;SDS011;3594;42.152;24.714;2023-07-13T10:45:34;5.50;;;4.20;;
7104;SDS011;3594;42.152;24.714;2023-07-13T10:48:01;9.75;;;4.78;;
7104;SDS011;3594;42.152;24.714;2023-07-13T10:50:28;6.68;;;4.65;;
7104;SDS011;3594;42.152;24.714;2023-07-13T10:53:15;6.03;;;3.88;;
7104;SDS011;3594;42.152;24.714;2023-07-13T11:01:17;7.40;;;4.22;;
7104;SDS011;3594;42.152;24.714;2023-07-13T11:06:11;6.97;;;4.55;;
7104;SDS011;3594;42.152;24.714;2023-07-13T11:18:50;14.68;;;6.88;;
7104;SDS011;3594;42.152;24.714;2023-07-13T11:21:19;26.80;;;13.57;;
7104;SDS011;3594;42.152;24.714;2023-07-13T11:23:53;14.05;;;5.10;;
7104;SDS011;3594;42.152;24.714;2023-07-13T11:32:24;7.93;;;5.65;;
7104;SDS011;3594;42.152;24.714;2023-07-13T11:34:54;11.23;;;5.95;;
7104;SDS011;3594;42.152;24.714;2023-07-13T11:37:20;8.20;;;4.35;;
7104;SDS011;3594;42.152;24.714;2023-07-13T11:39:48;6.35;;;4.55;;
7104;SDS011;3594;42.152;24.714;2023-07-13T11:42:17;8.02;;;4.47;;
7104;SDS011;3594;42.152;24.714;2023-07-13T11:44:45;7.32;;;4.38;;
7104;SDS011;3594;42.152;24.714;2023-07-13T11:47:19;7.20;;;5.00;;
7104;SDS011;3594;42.152;24.714;2023-07-13T11:49:51;5.53;;;3.78;;
7104;SDS011;3594;42.152;24.714;2023-07-13T11:52:22;9.50;;;3.60;;
7104;SDS011;3594;42.152;24.714;2023-07-13T11:54:53;5.57;;;3.80;;
7104;SDS011;3594;42.152;24.714;2023-07-13T11:59:49;6.30;;;4.10;;
7104;SDS011;3594;42.152;24.714;2023-07-13T12:02:33;7.53;;;4.55;;
7104;SDS011;3594;42.152;24.714;2023-07-13T12:05:02;5.70;;;3.72;;
7104;SDS011;3594;42.152;24.714;2023-07-13T12:07:32;7.25;;;3.85;;
7104;SDS011;3594;42.152;24.714;2023-07-13T12:12:48;5.78;;;4.00;;
7104;SDS011;3594;42.152;24.714;2023-07-13T12:15:17;6.50;;;3.60;;
7104;SDS011;3594;42.152;24.714;2023-07-13T12:17:43;6.47;;;4.10;;
7104;SDS011;3594;42.152;24.714;2023-07-13T12:20:20;7.05;;;3.90;;
7104;SDS011;3594;42.152;24.714;2023-07-13T12:22:49;13.30;;;4.82;;
7104;SDS011;3594;42.152;24.714;2023-07-13T12:25:15;6.47;;;3.67;;
7104;SDS011;3594;42.152;24.714;2023-07-13T12:27:42;5.93;;;3.83;;
7104;SDS011;3594;42.152;24.714;2023-07-13T12:30:30;7.45;;;3.63;;
7104;SDS011;3594;42.152;24.714;2023-07-13T12:33:07;6.30;;;3.65;;
7104;SDS011;3594;42.152;24.714;2023-07-13T12:35:40;5.95;;;4.05;;
7104;SDS011;3594;42.152;24.714;2023-07-13T12:38:11;6.55;;;3.97;;
7104;SDS011;3594;42.152;24.714;2023-07-13T12:40:37;6.10;;;3.80;;
7104;SDS011;3594;42.152;24.714;2023-07-13T12:43:03;7.05;;;4.05;;
7104;SDS011;3594;42.152;24.714;2023-07-13T12:45:31;8.60;;;4.00;;
7104;SDS011;3594;42.152;24.714;2023-07-13T12:47:58;9.40;;;5.35;;
7104;SDS011;3594;42.152;24.714;2023-07-13T12:50:33;7.05;;;3.80;;
7104;SDS011;3594;42.152;24.714;2023-07-13T12:53:03;9.65;;;4.15;;
7104;SDS011;3594;42.152;24.714;2023-07-13T12:55:32;9.30;;;4.22;;
7104;SDS011;3594;42.152;24.714;2023-07-13T12:58:09;8.32;;;3.70;;
7104;SDS011;3594;42.152;24.714;2023-07-13T13:00:50;5.50;;;3.38;;
7104;SDS011;3594;42.152;24.714;2023-07-13T13:05:56;7.57;;;4.15;;
7104;SDS011;3594;42.152;24.714;2023-07-13T13:08:24;6.43;;;3.95;;
7104;SDS011;3594;42.152;24.714;2023-07-13T13:10:50;7.30;;;3.85;;
7104;SDS011;3594;42.152;24.714;2023-07-13T13:13:15;7.00;;;4.00;;
7104;SDS011;3594;42.152;24.714;2023-07-13T13:15:41;6.38;;;3.90;;
7104;SDS011;3594;42.152;24.714;2023-07-13T13:18:19;6.30;;;4.00;;
7104;SDS011;3594;42.152;24.714;2023-07-13T13:20:46;5.60;;;3.20;;
7104;SDS011;3594;42.152;24.714;2023-07-13T13:23:17;7.40;;;3.80;;
7104;SDS011;3594;42.152;24.714;2023-07-13T13:25:45;5.53;;;3.15;;
7104;SDS011;3594;42.152;24.714;2023-07-13T13:28:16;5.60;;;3.30;;
7104;SDS011;3594;42.152;24.714;2023-07-13T13:30:43;4.68;;;3.35;;
7104;SDS011;3594;42.152;24.714;2023-07-13T13:33:11;5.55;;;3.28;;
7104;SDS011;3594;42.152;24.714;2023-07-13T13:35:38;7.25;;;3.40;;
7104;SDS011;3594;42.152;24.714;2023-07-13T13:38:11;6.97;;;3.65;;
7104;SDS011;3594;42.152;24.714;2023-07-13T13:40:41;7.10;;;3.30;;
7104;SDS011;3594;42.152;24.714;2023-07-13T13:43:14;9.75;;;3.70;;
7104;SDS011;3594;42.152;24.714;2023-07-13T13:45:41;6.95;;;3.40;;
7104;SDS011;3594;42.152;24.714;2023-07-13T13:48:08;6.93;;;3.53;;
7104;SDS011;3594;42.152;24.714;2023-07-13T13:50:43;6.50;;;3.20;;
7104;SDS011;3594;42.152;24.714;2023-07-13T13:53:11;5.10;;;3.17;;
7104;SDS011;3594;42.152;24.714;2023-07-13T13:55:38;6.60;;;3.08;;
7104;SDS011;3594;42.152;24.714;2023-07-13T13:58:04;12.88;;;3.50;;
7104;SDS011;3594;42.152;24.714;2023-07-13T14:00:31;5.72;;;3.22;;
7104;SDS011;3594;42.152;24.714;2023-07-13T14:02:57;5.90;;;3.80;;
7104;SDS011;3594;42.152;24.714;2023-07-13T14:05:23;8.63;;;3.55;;
7104;SDS011;3594;42.152;24.714;2023-07-13T14:07:53;6.07;;;3.90;;
7104;SDS011;3594;42.152;24.714;2023-07-13T14:10:19;5.90;;;3.83;;
7104;SDS011;3594;42.152;24.714;2023-07-13T14:12:46;7.45;;;4.35;;
7104;SDS011;3594;42.152;24.714;2023-07-13T14:17:53;6.63;;;4.13;;
7104;SDS011;3594;42.152;24.714;2023-07-13T14:20:20;7.60;;;4.40;;
7104;SDS011;3594;42.152;24.714;2023-07-13T14:22:49;9.20;;;3.95;;
7104;SDS011;3594;42.152;24.714;2023-07-13T14:25:16;5.72;;;4.10;;
7104;SDS011;3594;42.152;24.714;2023-07-13T14:27:43;5.38;;;3.85;;
7104;SDS011;3594;42.152;24.714;2023-07-13T14:32:39;5.32;;;3.92;;
7104;SDS011;3594;42.152;24.714;2023-07-13T14:35:05;5.68;;;3.97;;
7104;SDS011;3594;42.152;24.714;2023-07-13T14:37:30;7.18;;;3.88;;
7104;SDS011;3594;42.152;24.714;2023-07-13T14:39:56;5.60;;;4.10;;
7104;SDS011;3594;42.152;24.714;2023-07-13T14:42:22;6.45;;;3.97;;
7104;SDS011;3594;42.152;24.714;2023-07-13T14:44:48;6.22;;;3.78;;
7104;SDS011;3594;42.152;24.714;2023-07-13T14:47:14;6.32;;;4.28;;
7104;SDS011;3594;42.152;24.714;2023-07-13T14:49:41;8.77;;;4.40;;
7104;SDS011;3594;42.152;24.714;2023-07-13T14:52:18;4.80;;;3.78;;
7104;SDS011;3594;42.152;24.714;2023-07-13T14:54:46;6.72;;;4.43;;
7104;SDS011;3594;42.152;24.714;2023-07-13T14:57:12;7.72;;;4.38;;
7104;SDS011;3594;42.152;24.714;2023-07-13T14:59:39;5.15;;;4.05;;
7104;SDS011;3594;42.152;24.714;2023-07-13T15:02:16;9.32;;;4.55;;
7104;SDS011;3594;42.152;24.714;2023-07-13T15:04:52;8.07;;;3.67;;
7104;SDS011;3594;42.152;24.714;2023-07-13T15:07:19;10.85;;;4.07;;
7104;SDS011;3594;42.152;24.714;2023-07-13T15:09:46;7.00;;;4.10;;
7104;SDS011;3594;42.152;24.714;2023-07-13T15:12:13;5.30;;;3.83;;
7104;SDS011;3594;42.152;24.714;2023-07-13T15:14:39;6.03;;;4.03;;
7104;SDS011;3594;42.152;24.714;2023-07-13T15:17:04;7.38;;;4.22;;
7104;SDS011;3594;42.152;24.714;2023-07-13T15:19:39;6.25;;;4.35;;
7104;SDS011;3594;42.152;24.714;2023-07-13T15:22:07;7.32;;;4.50;;
7104;SDS011;3594;42.152;24.714;2023-07-13T15:24:34;7.65;;;3.83;;
7104;SDS011;3594;42.152;24.714;2023-07-13T15:27:00;6.13;;;4.20;;
7104;SDS011;3594;42.152;24.714;2023-07-13T15:29:25;6.18;;;3.58;;
7104;SDS011;3594;42.152;24.714;2023-07-13T15:31:50;9.82;;;4.25;;
7104;SDS011;3594;42.152;24.714;2023-07-13T15:34:17;5.63;;;3.63;;
7104;SDS011;3594;42.152;24.714;2023-07-13T15:36:45;10.25;;;4.40;;
7104;SDS011;3594;42.152;24.714;2023-07-13T15:39:15;9.48;;;4.20;;
7104;SDS011;3594;42.152;24.714;2023-07-13T15:41:42;7.60;;;4.18;;
7104;SDS011;3594;42.152;24.714;2023-07-13T15:44:21;11.18;;;4.30;;
7104;SDS011;3594;42.152;24.714;2023-07-13T15:46:47;7.78;;;4.13;;
7104;SDS011;3594;42.152;24.714;2023-07-13T15:49:13;6.65;;;4.10;;
7104;SDS011;3594;42.152;24.714;2023-07-13T15:51:41;5.32;;;3.92;;
7104;SDS011;3594;42.152;24.714;2023-07-13T15:54:08;6.30;;;3.83;;
7104;SDS011;3594;42.152;24.714;2023-07-13T15:56:38;7.60;;;3.92;;
7104;SDS011;3594;42.152;24.714;2023-07-13T15:59:06;6.05;;;3.58;;
7104;SDS011;3594;42.152;24.714;2023-07-13T16:01:37;7.05;;;4.30;;
7104;SDS011;3594;42.152;24.714;2023-07-13T16:04:03;8.18;;;4.30;;
7104;SDS011;3594;42.152;24.714;2023-07-13T16:06:30;7.05;;;3.53;;